createdAt,value
2023-03-17T00:01:55.061Z,94264.38
2023-03-17T00:04:26.489Z,94262.28
2023-03-17T00:06:54.435Z,94268.38
2023-03-17T00:09:22.529Z,94264.25
2023-03-17T00:11:50.161Z,94257.38
2023-03-17T00:14:18.137Z,94266.50
2023-03-17T00:16:51.474Z,94275.50
2023-03-17T00:19:31.460Z,94274.63
2023-03-17T00:22:00.008Z,94267.00
2023-03-17T00:24:27.471Z,94264.53
2023-03-17T00:26:54.155Z,94267.59
2023-03-17T00:29:21.085Z,94266.28
2023-03-17T00:31:48.115Z,94261.63
2023-03-17T00:34:18.573Z,94264.53
2023-03-17T00:36:50.596Z,94268.41
2023-03-17T00:39:18.596Z,94259.84
2023-03-17T00:44:12.476Z,94258.31
2023-03-17T00:46:39.543Z,94261.31
2023-03-17T00:49:19.205Z,94253.94
2023-03-17T00:51:46.296Z,94255.63
2023-03-17T00:54:14.195Z,94256.19
2023-03-17T00:56:42.372Z,94267.00
2023-03-17T00:59:30.593Z,94258.44
2023-03-17T01:01:57.488Z,94265.75
2023-03-17T01:04:24.221Z,94274.09
2023-03-17T01:06:52.352Z,94272.91
2023-03-17T01:09:20.561Z,94280.72
2023-03-17T01:11:48.736Z,94273.47
2023-03-17T01:14:16.822Z,94274.47
2023-03-17T01:16:44.838Z,94275.66
2023-03-17T01:19:13.529Z,94272.56
2023-03-17T01:21:41.651Z,94271.22
2023-03-17T01:24:08.392Z,94280.06
2023-03-17T01:26:35.234Z,94272.78
2023-03-17T01:29:01.898Z,94269.06
2023-03-17T01:31:28.741Z,94277.78
2023-03-17T01:33:55.447Z,94278.94
2023-03-17T01:36:22.108Z,94275.94
2023-03-17T01:38:50.828Z,94275.13
2023-03-17T01:41:22.952Z,94280.28
2023-03-17T01:43:49.968Z,94278.13
2023-03-17T01:46:27.856Z,94281.25
2023-03-17T01:49:16.160Z,94278.31
2023-03-17T01:51:51.858Z,94276.88
2023-03-17T01:54:28.268Z,94282.72
2023-03-17T01:56:58.805Z,94277.69
2023-03-17T01:59:31.595Z,94284.19
2023-03-17T02:02:03.719Z,94291.56
2023-03-17T02:04:31.450Z,94296.69
2023-03-17T02:06:59.180Z,94296.38
2023-03-17T02:09:27.780Z,94294.41
2023-03-17T02:11:55.698Z,94290.09
2023-03-17T02:14:22.606Z,94293.00
2023-03-17T02:16:49.473Z,94295.56
2023-03-17T02:19:16.973Z,94297.84
2023-03-17T02:21:50.204Z,94301.16
2023-03-17T02:24:43.392Z,94294.94
2023-03-17T02:27:24.353Z,94292.50
2023-03-17T02:29:50.987Z,94293.44
2023-03-17T02:32:18.898Z,94294.81
2023-03-17T02:34:48.833Z,94295.94
2023-03-17T02:37:16.500Z,94302.91
2023-03-17T02:39:43.206Z,94306.59
2023-03-17T02:42:10.722Z,94315.25
2023-03-17T02:44:37.360Z,94315.31
2023-03-17T02:47:04.632Z,94321.25
2023-03-17T02:49:32.017Z,94324.63
2023-03-17T02:51:58.686Z,94322.81
2023-03-17T02:54:25.633Z,94324.59
2023-03-17T02:56:52.333Z,94320.22
2023-03-17T02:59:19.073Z,94324.34
2023-03-17T03:01:48.569Z,94325.50
2023-03-17T03:04:15.307Z,94325.22
2023-03-17T03:06:42.688Z,94338.19
2023-03-17T03:09:11.742Z,94338.19
2023-03-17T03:11:39.461Z,94336.16
2023-03-17T03:14:06.979Z,94334.22
2023-03-17T03:16:34.208Z,94338.69
2023-03-17T03:19:00.909Z,94336.72
2023-03-17T03:21:27.683Z,94342.97
2023-03-17T03:23:54.423Z,94343.19
2023-03-17T03:26:21.574Z,94341.41
2023-03-17T03:28:48.242Z,94350.16
2023-03-17T03:31:14.977Z,94347.69
2023-03-17T03:33:42.699Z,94352.63
2023-03-17T03:36:09.529Z,94354.16
2023-03-17T03:38:36.181Z,94355.94
2023-03-17T03:41:03.232Z,94350.88
2023-03-17T03:43:29.910Z,94356.16
2023-03-17T03:45:56.724Z,94352.38
2023-03-17T03:48:23.363Z,94357.66
2023-03-17T03:50:51.277Z,94355.97
2023-03-17T03:53:17.920Z,94354.97
2023-03-17T03:55:44.551Z,94354.75
2023-03-17T03:58:11.444Z,94360.31
2023-03-17T04:00:38.109Z,94364.09
2023-03-17T04:03:04.934Z,94362.47
2023-03-17T04:05:31.843Z,94367.03
2023-03-17T04:07:58.525Z,94369.97
2023-03-17T04:10:25.548Z,94374.13
2023-03-17T04:12:52.168Z,94376.66
2023-03-17T04:15:19.950Z,94376.50
2023-03-17T04:17:46.660Z,94376.03
2023-03-17T04:20:15.084Z,94381.34
2023-03-17T04:22:42.101Z,94387.56
2023-03-17T04:25:10.357Z,94387.75
2023-03-17T04:27:37.613Z,94380.16
2023-03-17T04:30:05.490Z,94384.09
2023-03-17T04:32:32.249Z,94387.47
2023-03-17T04:34:59.033Z,94391.59
2023-03-17T04:37:25.852Z,94391.81
2023-03-17T04:39:53.211Z,94394.09
2023-03-17T04:42:19.843Z,94395.03
2023-03-17T04:44:46.568Z,94390.41
2023-03-17T04:47:13.145Z,94407.78
2023-03-17T04:49:39.866Z,94406.03
2023-03-17T04:52:06.806Z,94404.06
2023-03-17T04:54:33.397Z,94414.16
2023-03-17T04:57:00.017Z,94412.03
2023-03-17T04:59:27.385Z,94421.03
2023-03-17T05:01:54.102Z,94416.63
2023-03-17T05:04:31.209Z,94413.56
2023-03-17T05:06:58.872Z,94416.91
2023-03-17T05:09:26.916Z,94425.28
2023-03-17T05:11:53.664Z,94432.16
2023-03-17T05:14:20.886Z,94429.97
2023-03-17T05:16:48.494Z,94434.91
2023-03-17T05:19:16.462Z,94438.53
2023-03-17T05:21:43.743Z,94435.16
2023-03-17T05:24:10.537Z,94445.56
2023-03-17T05:26:37.220Z,94447.31
2023-03-17T05:29:04.072Z,94451.97
2023-03-17T05:31:31.630Z,94453.09
2023-03-17T05:33:58.530Z,94455.84
2023-03-17T05:36:25.218Z,94461.25
2023-03-17T05:38:52.457Z,94457.53
2023-03-17T05:41:19.266Z,94461.00
2023-03-17T05:43:46.124Z,94456.81
2023-03-17T05:46:12.992Z,94464.16
2023-03-17T05:48:39.652Z,94455.72
2023-03-17T05:51:06.726Z,94455.84
2023-03-17T05:53:33.751Z,94458.63
2023-03-17T05:56:00.357Z,94462.00
2023-03-17T05:58:27.055Z,94468.50
2023-03-17T06:00:53.800Z,94469.75
2023-03-17T06:03:21.623Z,94470.00
2023-03-17T06:05:48.606Z,94479.75
2023-03-17T06:08:15.249Z,94489.81
2023-03-17T06:10:43.138Z,94493.75
2023-03-17T06:13:11.006Z,94500.72
2023-03-17T06:15:37.985Z,94496.78
2023-03-17T06:18:05.755Z,94505.53
2023-03-17T06:20:33.202Z,94509.63
2023-03-17T06:23:05.037Z,94512.22
2023-03-17T06:25:33.117Z,94511.72
2023-03-17T06:28:02.626Z,94508.34
2023-03-17T06:30:30.810Z,94511.97
2023-03-17T06:32:57.601Z,94516.81
2023-03-17T06:35:25.256Z,94518.56
2023-03-17T06:37:52.137Z,94528.59
2023-03-17T06:40:18.985Z,94527.97
2023-03-17T06:42:45.752Z,94515.06
2023-03-17T06:45:12.958Z,94523.50
2023-03-17T06:47:39.960Z,94516.41
2023-03-17T06:50:09.814Z,94524.72
2023-03-17T06:52:37.608Z,94522.78
2023-03-17T06:55:05.339Z,94526.31
2023-03-17T06:57:32.563Z,94540.47
2023-03-17T06:59:59.127Z,94532.28
2023-03-17T07:02:26.461Z,94537.34
2023-03-17T07:04:53.490Z,94543.13
2023-03-17T07:07:21.227Z,94537.47
2023-03-17T07:09:48.089Z,94540.66
2023-03-17T07:12:15.850Z,94536.44
2023-03-17T07:14:42.476Z,94536.25
2023-03-17T07:17:13.154Z,94538.56
2023-03-17T07:19:40.659Z,94546.78
2023-03-17T07:22:09.517Z,94538.13
2023-03-17T07:24:36.310Z,94541.91
2023-03-17T07:27:02.972Z,94543.31
2023-03-17T07:29:29.909Z,94551.59
2023-03-17T07:31:56.592Z,94554.69
2023-03-17T07:34:24.127Z,94554.81
2023-03-17T07:36:51.088Z,94543.94
2023-03-17T07:39:17.793Z,94548.53
2023-03-17T07:41:44.642Z,94543.81
2023-03-17T07:44:11.584Z,94551.78
2023-03-17T07:46:39.058Z,94551.44
2023-03-17T07:49:06.310Z,94549.28
2023-03-17T07:51:33.476Z,94560.75
2023-03-17T07:54:03.683Z,94552.25
2023-03-17T07:56:31.442Z,94557.06
2023-03-17T07:58:59.206Z,94558.34
2023-03-17T08:01:27.856Z,94563.03
2023-03-17T08:03:55.750Z,94565.47
2023-03-17T08:06:25.444Z,94570.03
2023-03-17T08:08:53.157Z,94573.22
2023-03-17T08:11:20.200Z,94570.31
2023-03-17T08:13:47.971Z,94565.59
2023-03-17T08:16:14.677Z,94572.31
2023-03-17T08:18:41.628Z,94562.50
2023-03-17T08:21:08.320Z,94560.06
2023-03-17T08:23:35.370Z,94570.72
2023-03-17T08:26:04.087Z,94571.81
2023-03-17T08:28:31.487Z,94570.34
2023-03-17T08:31:17.221Z,94567.03
2023-03-17T08:33:50.588Z,94568.28
2023-03-17T08:36:18.621Z,94554.81
2023-03-17T08:38:46.939Z,94557.03
2023-03-17T08:41:16.669Z,94560.25
2023-03-17T08:43:44.136Z,94557.88
2023-03-17T08:46:31.730Z,94562.09
2023-03-17T08:48:59.752Z,94562.44
2023-03-17T08:51:32.544Z,94569.66
2023-03-17T08:53:59.844Z,94558.09
2023-03-17T08:56:27.445Z,94567.09
2023-03-17T08:58:54.544Z,94564.50
2023-03-17T09:01:22.975Z,94563.16
2023-03-17T09:03:50.751Z,94561.13
2023-03-17T09:06:18.094Z,94567.00
2023-03-17T09:08:47.369Z,94577.16
2023-03-17T09:11:16.763Z,94572.59
2023-03-17T09:13:44.858Z,94567.94
2023-03-17T09:16:11.557Z,94571.22
2023-03-17T09:18:39.344Z,94564.47
2023-03-17T09:21:06.637Z,94568.34
2023-03-17T09:23:33.754Z,94580.13
2023-03-17T09:26:02.205Z,94574.66
2023-03-17T09:28:29.307Z,94573.09
2023-03-17T09:31:03.925Z,94572.75
2023-03-17T09:33:31.056Z,94572.47
2023-03-17T09:35:58.170Z,94578.88
2023-03-17T09:38:26.401Z,94571.84
2023-03-17T09:40:53.013Z,94578.09
2023-03-17T09:43:34.180Z,94581.06
2023-03-17T09:46:25.366Z,94578.84
2023-03-17T09:49:02.187Z,94591.53
2023-03-17T09:51:32.455Z,94586.25
2023-03-17T09:54:02.434Z,94577.56
2023-03-17T09:56:35.039Z,94590.75
2023-03-17T09:59:32.233Z,94587.16
2023-03-17T10:01:59.023Z,94589.63
2023-03-17T10:04:25.941Z,94593.75
2023-03-17T10:07:02.668Z,94588.69
2023-03-17T10:09:51.435Z,94588.69
2023-03-17T10:12:25.089Z,94586.22
2023-03-17T10:14:58.251Z,94588.19
2023-03-17T10:17:35.750Z,94585.88
2023-03-17T10:20:11.567Z,94581.19
2023-03-17T10:23:01.714Z,94582.47
2023-03-17T10:25:31.893Z,94577.56
2023-03-17T10:28:31.710Z,94577.03
2023-03-17T10:31:13.572Z,94578.53
2023-03-17T10:33:40.347Z,94578.84
2023-03-17T10:36:09.650Z,94569.56
2023-03-17T10:38:36.994Z,94575.41
2023-03-17T10:41:13.495Z,94574.31
2023-03-17T10:43:45.779Z,94582.66
2023-03-17T10:46:25.773Z,94572.94
2023-03-17T10:48:56.955Z,94557.69
2023-03-17T10:51:35.834Z,94560.72
2023-03-17T10:54:20.535Z,94560.06
2023-03-17T10:56:50.358Z,94558.72
2023-03-17T11:02:14.760Z,94552.00
2023-03-17T11:04:43.411Z,94543.41
2023-03-17T11:07:17.718Z,94538.88
2023-03-17T11:09:50.735Z,94532.97
2023-03-17T11:12:30.038Z,94534.66
2023-03-17T11:15:02.224Z,94542.28
2023-03-17T11:18:01.553Z,94529.94
2023-03-17T11:20:46.175Z,94526.59
2023-03-17T11:23:19.274Z,94531.38
2023-03-17T11:25:52.380Z,94528.81
2023-03-17T11:28:21.916Z,94532.00
2023-03-17T11:31:20.924Z,94530.19
2023-03-17T11:34:00.075Z,94534.34
2023-03-17T11:36:36.308Z,94537.97
2023-03-17T11:39:14.059Z,94530.28
2023-03-17T11:42:11.564Z,94535.97
2023-03-17T11:45:15.638Z,94532.13
2023-03-17T11:48:06.809Z,94533.75
2023-03-17T11:50:44.657Z,94529.75
2023-03-17T11:53:26.411Z,94523.22
2023-03-17T11:56:20.261Z,94525.16
2023-03-17T11:58:52.621Z,94528.78
2023-03-17T12:01:28.303Z,94524.06
2023-03-17T12:04:16.573Z,94523.94
2023-03-17T12:06:50.674Z,94515.22
2023-03-17T12:09:30.840Z,94513.28
2023-03-17T12:11:59.631Z,94512.06
2023-03-17T12:14:30.773Z,94518.72
2023-03-17T12:17:07.122Z,94519.97
2023-03-17T12:20:12.713Z,94510.41
2023-03-17T12:23:12.165Z,94500.38
2023-03-17T12:25:51.757Z,94493.44
2023-03-17T12:28:25.218Z,94495.63
2023-03-17T12:31:07.881Z,94498.03
2023-03-17T12:33:43.910Z,94491.22
2023-03-17T12:36:17.666Z,94500.47
2023-03-17T12:38:51.946Z,94492.78
2023-03-17T12:41:43.920Z,94501.75
2023-03-17T12:44:13.378Z,94503.44
2023-03-17T12:47:12.223Z,94500.16
2023-03-17T12:49:54.022Z,94496.53
2023-03-17T12:52:53.063Z,94494.00
2023-03-17T12:55:24.886Z,94494.25
2023-03-17T12:58:08.084Z,94493.09
2023-03-17T13:00:50.752Z,94491.38
2023-03-17T13:03:32.791Z,94489.22
2023-03-17T13:06:07.500Z,94480.69
2023-03-17T13:08:42.281Z,94482.59
2023-03-17T13:11:17.934Z,94486.06
2023-03-17T13:14:11.707Z,94491.50
2023-03-17T13:16:41.286Z,94493.41
2023-03-17T13:19:26.917Z,94487.41
2023-03-17T13:22:14.290Z,94496.28
2023-03-17T13:24:52.605Z,94493.34
2023-03-17T13:27:34.022Z,94486.72
2023-03-17T13:30:26.972Z,94476.06
2023-03-17T13:33:12.285Z,94478.56
2023-03-17T13:35:42.725Z,94477.84
2023-03-17T13:38:20.206Z,94480.09
2023-03-17T13:40:59.390Z,94489.88
2023-03-17T13:43:48.817Z,94482.50
2023-03-17T13:46:41.852Z,94486.06
2023-03-17T13:49:24.247Z,94481.53
2023-03-17T13:52:16.317Z,94491.31
2023-03-17T13:54:50.017Z,94488.00
2023-03-17T13:57:36.147Z,94488.22
2023-03-17T14:00:24.336Z,94492.41
2023-03-17T14:03:02.105Z,94487.66
2023-03-17T14:05:35.635Z,94490.91
2023-03-17T14:08:21.726Z,94487.72
2023-03-17T14:11:03.835Z,94488.13
2023-03-17T14:13:49.468Z,94500.22
2023-03-17T14:16:32.164Z,94499.38
2023-03-17T14:19:10.949Z,94491.34
2023-03-17T14:21:37.627Z,94492.28
2023-03-17T14:24:24.384Z,94488.41
2023-03-17T14:26:52.524Z,94501.31
2023-03-17T14:29:25.289Z,94494.03
2023-03-17T14:32:02.405Z,94506.75
2023-03-17T14:34:29.092Z,94505.28
2023-03-17T14:37:02.220Z,94494.50
2023-03-17T14:39:29.456Z,94506.00
2023-03-17T14:42:01.753Z,94504.53
2023-03-17T14:44:36.017Z,94501.22
2023-03-17T14:47:06.069Z,94503.28
2023-03-17T14:49:33.801Z,94504.00
2023-03-17T14:52:00.909Z,94502.16
2023-03-17T14:54:32.481Z,94509.91
2023-03-17T14:57:03.282Z,94502.16
2023-03-17T14:59:41.852Z,94501.94
2023-03-17T15:02:23.284Z,94489.66
2023-03-17T15:04:53.657Z,94500.41
2023-03-17T15:07:35.633Z,94507.09
2023-03-17T15:10:03.571Z,94506.00
2023-03-17T15:12:30.754Z,94515.69
2023-03-17T15:15:09.170Z,94516.66
2023-03-17T15:17:37.019Z,94511.41
2023-03-17T15:20:13.461Z,94516.66
2023-03-17T15:22:43.406Z,94513.84
2023-03-17T15:25:31.966Z,94519.50
2023-03-17T15:27:59.039Z,94521.41
2023-03-17T15:30:29.535Z,94525.09
2023-03-17T15:33:00.999Z,94525.91
2023-03-17T15:35:27.739Z,94519.81
2023-03-17T15:37:55.076Z,94535.50
2023-03-17T15:40:23.202Z,94521.38
2023-03-17T15:42:49.829Z,94526.41
2023-03-17T15:45:17.768Z,94532.47
2023-03-17T15:47:47.059Z,94537.09
2023-03-17T15:50:22.201Z,94534.84
2023-03-17T15:52:49.050Z,94543.09
2023-03-17T15:55:20.986Z,94539.50
2023-03-17T15:57:54.740Z,94538.38
2023-03-17T16:00:23.965Z,94549.78
2023-03-17T16:02:55.001Z,94541.81
2023-03-17T16:05:24.496Z,94533.63
2023-03-17T16:07:51.628Z,94547.50
2023-03-17T16:10:25.476Z,94546.97
2023-03-17T16:12:52.612Z,94556.47
2023-03-17T16:15:28.113Z,94548.53
2023-03-17T16:17:58.418Z,94556.19
2023-03-17T16:20:34.046Z,94556.38
2023-03-17T16:23:07.401Z,94554.50
2023-03-17T16:25:34.201Z,94553.19
2023-03-17T16:28:07.469Z,94562.78
2023-03-17T16:30:34.839Z,94550.78
2023-03-17T16:33:09.169Z,94562.75
2023-03-17T16:35:35.977Z,94561.00
2023-03-17T16:38:02.569Z,94559.81
2023-03-17T16:40:35.868Z,94560.09
2023-03-17T16:43:12.956Z,94562.88
2023-03-17T16:45:42.486Z,94565.53
2023-03-17T16:48:13.568Z,94565.72
2023-03-17T16:50:40.818Z,94562.13
2023-03-17T16:53:07.658Z,94566.78
2023-03-17T16:55:34.722Z,94563.84
2023-03-17T16:58:07.224Z,94556.66
2023-03-17T17:00:34.283Z,94560.66
2023-03-17T17:03:00.932Z,94562.59
2023-03-17T17:05:30.192Z,94562.00
2023-03-17T17:07:58.172Z,94554.50
2023-03-17T17:10:27.369Z,94560.03
2023-03-17T17:12:54.551Z,94565.75
2023-03-17T17:15:22.613Z,94565.59
2023-03-17T17:17:51.872Z,94568.25
2023-03-17T17:20:23.841Z,94575.72
2023-03-17T17:22:51.194Z,94582.31
2023-03-17T17:25:18.736Z,94586.63
2023-03-17T17:27:46.366Z,94581.84
2023-03-17T17:30:16.551Z,94579.97
2023-03-17T17:32:43.741Z,94579.97
2023-03-17T17:35:10.427Z,94587.16
2023-03-17T17:37:37.512Z,94585.09
2023-03-17T17:40:05.915Z,94585.88
2023-03-17T17:42:32.559Z,94586.19
2023-03-17T17:44:59.515Z,94581.44
2023-03-17T17:47:26.153Z,94582.06
2023-03-17T17:49:52.866Z,94572.00
2023-03-17T17:52:19.545Z,94582.25
2023-03-17T17:54:46.282Z,94576.66
2023-03-17T17:57:13.431Z,94581.84
2023-03-17T17:59:40.442Z,94582.50
2023-03-17T18:02:07.312Z,94587.34
2023-03-17T18:04:34.060Z,94593.50
2023-03-17T18:07:00.847Z,94592.56
2023-03-17T18:09:27.838Z,94587.53
2023-03-17T18:11:54.493Z,94587.25
2023-03-17T18:14:21.643Z,94584.75
2023-03-17T18:16:48.493Z,94585.38
2023-03-17T18:19:15.880Z,94581.44
2023-03-17T18:21:43.113Z,94571.88
2023-03-17T18:24:10.457Z,94570.94
2023-03-17T18:26:37.188Z,94573.81
2023-03-17T18:29:03.879Z,94571.91
2023-03-17T18:31:34.858Z,94578.78
2023-03-17T18:34:21.857Z,94576.91
2023-03-17T18:36:49.938Z,94582.88
2023-03-17T18:39:16.746Z,94586.97
2023-03-17T18:41:44.731Z,94590.41
2023-03-17T18:44:11.972Z,94588.34
2023-03-17T18:46:38.657Z,94587.88
2023-03-17T18:49:06.414Z,94590.72
2023-03-17T18:51:33.927Z,94588.22
2023-03-17T18:54:00.599Z,94585.59
2023-03-17T18:56:29.324Z,94598.09
2023-03-17T18:58:57.167Z,94589.81
2023-03-17T19:01:24.757Z,94597.16
2023-03-17T19:03:51.941Z,94601.88
2023-03-17T19:06:20.700Z,94594.66
2023-03-17T19:08:48.389Z,94598.72
2023-03-17T19:11:17.265Z,94596.66
2023-03-17T19:13:45.576Z,94602.97
2023-03-17T19:16:13.177Z,94608.16
2023-03-17T19:18:42.238Z,94595.72
2023-03-17T19:21:09.742Z,94602.63
2023-03-17T19:23:38.275Z,94594.50
2023-03-17T19:26:06.248Z,94584.34
2023-03-17T19:28:33.680Z,94585.63
2023-03-17T19:31:00.779Z,94587.31
2023-03-17T19:33:28.983Z,94589.03
2023-03-17T19:35:58.724Z,94581.84
2023-03-17T19:38:32.761Z,94576.03
2023-03-17T19:40:59.490Z,94579.81
2023-03-17T19:43:40.032Z,94580.13
2023-03-17T19:46:12.114Z,94580.13
2023-03-17T19:48:39.634Z,94572.47
2023-03-17T19:51:06.929Z,94579.97
2023-03-17T19:53:34.168Z,94582.66
2023-03-17T19:56:02.208Z,94574.97
2023-03-17T19:58:28.896Z,94575.75
2023-03-17T20:00:56.385Z,94577.00
2023-03-17T20:03:25.651Z,94581.78
2023-03-17T20:05:53.728Z,94577.84
2023-03-17T20:08:22.355Z,94578.13
2023-03-17T20:10:54.039Z,94577.56
2023-03-17T20:13:21.960Z,94572.53
2023-03-17T20:15:50.142Z,94567.09
2023-03-17T20:18:17.177Z,94566.78
2023-03-17T20:20:49.505Z,94568.06
2023-03-17T20:23:17.472Z,94561.16
2023-03-17T20:25:44.591Z,94559.56
2023-03-17T20:28:12.333Z,94555.56
2023-03-17T20:30:39.959Z,94554.00
2023-03-17T20:33:08.328Z,94549.75
2023-03-17T20:35:35.463Z,94552.22
2023-03-17T20:38:02.305Z,94567.59
2023-03-17T20:40:29.417Z,94557.47
2023-03-17T20:42:56.533Z,94551.75
2023-03-17T20:45:23.266Z,94557.19
2023-03-17T20:47:50.168Z,94549.97
2023-03-17T20:50:17.085Z,94549.47
2023-03-17T20:52:43.785Z,94553.41
2023-03-17T20:55:13.963Z,94563.44
2023-03-17T20:57:42.126Z,94560.22
2023-03-17T21:00:12.993Z,94555.84
2023-03-17T21:02:39.676Z,94554.56
2023-03-17T21:05:07.472Z,94556.94
2023-03-17T21:07:34.074Z,94560.09
2023-03-17T21:10:02.229Z,94554.44
2023-03-17T21:12:28.909Z,94555.16
2023-03-17T21:14:55.928Z,94546.56
2023-03-17T21:17:25.554Z,94548.91
2023-03-17T21:19:54.114Z,94554.44
2023-03-17T21:22:20.942Z,94553.66
2023-03-17T21:24:47.462Z,94556.50
2023-03-17T21:27:14.138Z,94542.44
2023-03-17T21:29:40.972Z,94549.00
2023-03-17T21:32:08.577Z,94553.03
2023-03-17T21:34:37.144Z,94548.47
2023-03-17T21:37:04.443Z,94544.88
2023-03-17T21:39:32.741Z,94550.38
2023-03-17T21:42:01.344Z,94553.19
2023-03-17T21:44:28.276Z,94549.72
2023-03-17T21:46:56.701Z,94551.97
2023-03-17T21:49:24.836Z,94534.72
2023-03-17T21:51:51.716Z,94546.78
2023-03-17T21:54:19.318Z,94536.53
2023-03-17T21:56:46.328Z,94536.13
2023-03-17T21:59:14.693Z,94538.84
2023-03-17T22:01:43.228Z,94546.56
2023-03-17T22:04:10.722Z,94538.06
2023-03-17T22:06:37.346Z,94543.53
2023-03-17T22:09:05.487Z,94548.25
2023-03-17T22:11:32.212Z,94547.25
2023-03-17T22:13:59.072Z,94532.25
2023-03-17T22:16:26.015Z,94530.41
2023-03-17T22:18:52.856Z,94535.25
2023-03-17T22:21:20.535Z,94536.09
2023-03-17T22:23:47.888Z,94530.56
2023-03-17T22:26:16.838Z,94533.44
2023-03-17T22:28:44.833Z,94535.00
2023-03-17T22:31:16.986Z,94526.00
2023-03-17T22:33:44.185Z,94530.00
2023-03-17T22:36:11.504Z,94531.78
2023-03-17T22:38:38.427Z,94530.97
2023-03-17T22:41:08.423Z,94531.44
2023-03-17T22:43:36.810Z,94529.34
2023-03-17T22:46:03.871Z,94537.88
2023-03-17T22:48:32.592Z,94527.63
2023-03-17T22:51:03.536Z,94529.25
2023-03-17T22:53:31.589Z,94530.38
2023-03-17T22:55:59.030Z,94531.50
2023-03-17T22:58:26.577Z,94524.19
2023-03-17T23:00:54.239Z,94517.41
2023-03-17T23:03:21.110Z,94517.47
2023-03-17T23:05:49.897Z,94516.19
2023-03-17T23:08:17.907Z,94511.63
2023-03-17T23:10:45.908Z,94521.16
2023-03-17T23:13:12.708Z,94516.56
2023-03-17T23:15:39.375Z,94511.63
2023-03-17T23:18:06.521Z,94514.47
2023-03-17T23:20:33.919Z,94515.56
2023-03-17T23:23:00.932Z,94507.34
2023-03-17T23:25:27.571Z,94510.63
2023-03-17T23:27:54.928Z,94515.50
2023-03-17T23:30:21.680Z,94503.25
2023-03-17T23:32:49.367Z,94505.91
2023-03-17T23:35:17.495Z,94511.84
2023-03-17T23:37:45.129Z,94518.53
2023-03-17T23:40:17.373Z,94512.41
2023-03-17T23:42:46.029Z,94512.16
2023-03-17T23:45:15.341Z,94508.56
2023-03-17T23:47:42.921Z,94506.50
2023-03-17T23:50:11.752Z,94497.88
2023-03-17T23:52:38.629Z,94493.56
2023-03-17T23:55:06.775Z,94498.56
2023-03-17T23:57:34.741Z,94501.59
